Terminal Aerodrome Forecast
Issued by NWS

Home | Current Version | Previous Version | Text Only | Print | Product List | Glossary On
Versions: 1 2 3 4 5 6 7 8 9 10 11 12 13 14 15
000
FTUS46 KLOX 282300
TAFWJF
TAF
KWJF 282333Z 2900/2924 24017G25KT P6SM VCTS SCT060CB BKN120
     FM290300 24012KT P6SM BKN120
     FM290900 23008KT P6SM SCT150
     FM292000 24015G25KT P6SM SCT200=

USA.gov is the U.S. government's official web portal to all federal, state and local government web resources and services.